sensor_id;sensor_type;location;lat;lon;timestamp;P1;durP1;ratioP1;P2;durP2;ratioP2
75044;SDS011;63614;56.026;35.960;2024-02-26T00:00:04;16.27;;;5.47;;
75044;SDS011;63614;56.026;35.960;2024-02-26T00:02:35;7.65;;;3.85;;
75044;SDS011;63614;56.026;35.960;2024-02-26T00:05:06;7.85;;;3.97;;
75044;SDS011;63614;56.026;35.960;2024-02-26T00:07:32;8.18;;;3.80;;
75044;SDS011;63614;56.026;35.960;2024-02-26T00:09:58;7.43;;;4.00;;
75044;SDS011;63614;56.026;35.960;2024-02-26T00:12:24;8.65;;;4.30;;
75044;SDS011;63614;56.026;35.960;2024-02-26T00:14:50;8.55;;;4.30;;
75044;SDS011;63614;56.026;35.960;2024-02-26T00:17:18;13.02;;;4.80;;
75044;SDS011;63614;56.026;35.960;2024-02-26T00:19:44;6.65;;;4.10;;
75044;SDS011;63614;56.026;35.960;2024-02-26T00:22:10;7.10;;;4.00;;
75044;SDS011;63614;56.026;35.960;2024-02-26T00:24:36;13.52;;;4.97;;
75044;SDS011;63614;56.026;35.960;2024-02-26T00:27:02;9.80;;;4.18;;
75044;SDS011;63614;56.026;35.960;2024-02-26T00:29:28;9.35;;;3.95;;
75044;SDS011;63614;56.026;35.960;2024-02-26T00:31:54;7.07;;;4.32;;
75044;SDS011;63614;56.026;35.960;2024-02-26T00:34:20;16.33;;;4.97;;
75044;SDS011;63614;56.026;35.960;2024-02-26T00:36:46;8.98;;;4.30;;
75044;SDS011;63614;56.026;35.960;2024-02-26T00:39:11;9.23;;;4.30;;
75044;SDS011;63614;56.026;35.960;2024-02-26T00:41:38;11.98;;;4.35;;
75044;SDS011;63614;56.026;35.960;2024-02-26T00:44:07;8.10;;;4.47;;
75044;SDS011;63614;56.026;35.960;2024-02-26T00:46:33;10.75;;;4.15;;
75044;SDS011;63614;56.026;35.960;2024-02-26T00:48:58;7.30;;;4.00;;
75044;SDS011;63614;56.026;35.960;2024-02-26T00:51:25;7.53;;;4.10;;
75044;SDS011;63614;56.026;35.960;2024-02-26T00:53:51;9.68;;;4.72;;
75044;SDS011;63614;56.026;35.960;2024-02-26T00:56:17;8.45;;;4.18;;
75044;SDS011;63614;56.026;35.960;2024-02-26T00:58:43;10.60;;;4.70;;
75044;SDS011;63614;56.026;35.960;2024-02-26T01:01:09;8.30;;;4.30;;
75044;SDS011;63614;56.026;35.960;2024-02-26T01:03:35;6.72;;;4.10;;
75044;SDS011;63614;56.026;35.960;2024-02-26T01:06:01;10.68;;;4.40;;
75044;SDS011;63614;56.026;35.960;2024-02-26T01:08:27;10.85;;;4.68;;
75044;SDS011;63614;56.026;35.960;2024-02-26T01:10:52;8.95;;;4.53;;
75044;SDS011;63614;56.026;35.960;2024-02-26T01:13:18;8.68;;;4.40;;
75044;SDS011;63614;56.026;35.960;2024-02-26T01:15:44;6.40;;;4.07;;
75044;SDS011;63614;56.026;35.960;2024-02-26T01:18:10;9.90;;;4.57;;
75044;SDS011;63614;56.026;35.960;2024-02-26T01:20:37;6.70;;;3.63;;
75044;SDS011;63614;56.026;35.960;2024-02-26T01:23:03;9.43;;;3.83;;
75044;SDS011;63614;56.026;35.960;2024-02-26T01:25:29;9.00;;;4.07;;
75044;SDS011;63614;56.026;35.960;2024-02-26T01:27:55;9.45;;;3.63;;
75044;SDS011;63614;56.026;35.960;2024-02-26T01:30:21;7.68;;;4.15;;
75044;SDS011;63614;56.026;35.960;2024-02-26T01:32:47;6.43;;;3.30;;
75044;SDS011;63614;56.026;35.960;2024-02-26T01:35:13;9.23;;;4.35;;
75044;SDS011;63614;56.026;35.960;2024-02-26T01:37:39;8.13;;;4.28;;
75044;SDS011;63614;56.026;35.960;2024-02-26T01:40:05;9.10;;;4.53;;
75044;SDS011;63614;56.026;35.960;2024-02-26T01:42:35;8.40;;;4.22;;
75044;SDS011;63614;56.026;35.960;2024-02-26T01:45:05;9.82;;;4.13;;
75044;SDS011;63614;56.026;35.960;2024-02-26T01:49:58;8.40;;;4.63;;
75044;SDS011;63614;56.026;35.960;2024-02-26T01:52:24;7.57;;;4.45;;
75044;SDS011;63614;56.026;35.960;2024-02-26T01:54:50;12.55;;;4.40;;
75044;SDS011;63614;56.026;35.960;2024-02-26T01:57:15;9.38;;;4.50;;
75044;SDS011;63614;56.026;35.960;2024-02-26T01:59:42;8.63;;;4.82;;
75044;SDS011;63614;56.026;35.960;2024-02-26T02:02:08;8.18;;;3.80;;
75044;SDS011;63614;56.026;35.960;2024-02-26T02:04:37;9.52;;;4.45;;
75044;SDS011;63614;56.026;35.960;2024-02-26T02:07:03;10.15;;;4.28;;
75044;SDS011;63614;56.026;35.960;2024-02-26T02:09:30;8.38;;;4.25;;
75044;SDS011;63614;56.026;35.960;2024-02-26T02:11:56;10.13;;;4.72;;
75044;SDS011;63614;56.026;35.960;2024-02-26T02:14:23;9.13;;;4.37;;
75044;SDS011;63614;56.026;35.960;2024-02-26T02:16:50;6.53;;;4.05;;
75044;SDS011;63614;56.026;35.960;2024-02-26T02:19:16;8.57;;;4.15;;
75044;SDS011;63614;56.026;35.960;2024-02-26T02:21:42;10.02;;;4.25;;
75044;SDS011;63614;56.026;35.960;2024-02-26T02:24:08;7.45;;;4.47;;
75044;SDS011;63614;56.026;35.960;2024-02-26T02:26:33;10.05;;;4.47;;
75044;SDS011;63614;56.026;35.960;2024-02-26T02:28:59;9.88;;;4.40;;
75044;SDS011;63614;56.026;35.960;2024-02-26T02:31:26;8.55;;;3.95;;
75044;SDS011;63614;56.026;35.960;2024-02-26T02:33:52;9.88;;;3.90;;
75044;SDS011;63614;56.026;35.960;2024-02-26T02:36:18;11.40;;;5.13;;
75044;SDS011;63614;56.026;35.960;2024-02-26T02:38:51;9.70;;;3.83;;
75044;SDS011;63614;56.026;35.960;2024-02-26T02:41:17;7.50;;;3.88;;
75044;SDS011;63614;56.026;35.960;2024-02-26T02:43:43;10.77;;;5.38;;
75044;SDS011;63614;56.026;35.960;2024-02-26T02:46:09;7.72;;;3.67;;
75044;SDS011;63614;56.026;35.960;2024-02-26T02:48:38;12.75;;;4.43;;
75044;SDS011;63614;56.026;35.960;2024-02-26T02:51:04;9.65;;;4.38;;
75044;SDS011;63614;56.026;35.960;2024-02-26T02:53:30;7.78;;;4.15;;
75044;SDS011;63614;56.026;35.960;2024-02-26T02:55:56;7.20;;;4.03;;
75044;SDS011;63614;56.026;35.960;2024-02-26T02:58:22;8.20;;;3.40;;
75044;SDS011;63614;56.026;35.960;2024-02-26T03:00:47;8.52;;;4.30;;
75044;SDS011;63614;56.026;35.960;2024-02-26T03:03:13;7.40;;;3.13;;
75044;SDS011;63614;56.026;35.960;2024-02-26T03:05:39;9.40;;;4.50;;
75044;SDS011;63614;56.026;35.960;2024-02-26T03:08:05;9.57;;;4.35;;
75044;SDS011;63614;56.026;35.960;2024-02-26T03:10:31;9.57;;;4.35;;
75044;SDS011;63614;56.026;35.960;2024-02-26T03:12:57;9.25;;;4.15;;
75044;SDS011;63614;56.026;35.960;2024-02-26T03:15:23;8.40;;;4.18;;
75044;SDS011;63614;56.026;35.960;2024-02-26T03:17:48;8.82;;;4.20;;
75044;SDS011;63614;56.026;35.960;2024-02-26T03:20:14;10.48;;;4.45;;
75044;SDS011;63614;56.026;35.960;2024-02-26T03:22:40;10.27;;;4.20;;
75044;SDS011;63614;56.026;35.960;2024-02-26T03:25:06;8.93;;;4.65;;
75044;SDS011;63614;56.026;35.960;2024-02-26T03:27:32;5.38;;;2.95;;
75044;SDS011;63614;56.026;35.960;2024-02-26T03:29:58;9.38;;;4.68;;
75044;SDS011;63614;56.026;35.960;2024-02-26T03:32:24;8.30;;;3.97;;
75044;SDS011;63614;56.026;35.960;2024-02-26T03:34:50;11.98;;;4.07;;
75044;SDS011;63614;56.026;35.960;2024-02-26T03:37:19;16.10;;;4.05;;
75044;SDS011;63614;56.026;35.960;2024-02-26T03:39:45;10.23;;;3.63;;
75044;SDS011;63614;56.026;35.960;2024-02-26T03:42:11;10.27;;;4.90;;
75044;SDS011;63614;56.026;35.960;2024-02-26T03:44:37;8.60;;;4.05;;
75044;SDS011;63614;56.026;35.960;2024-02-26T03:47:03;10.27;;;4.28;;
75044;SDS011;63614;56.026;35.960;2024-02-26T03:49:29;11.35;;;4.40;;
75044;SDS011;63614;56.026;35.960;2024-02-26T03:51:54;7.32;;;3.35;;
75044;SDS011;63614;56.026;35.960;2024-02-26T03:54:21;6.70;;;3.83;;
75044;SDS011;63614;56.026;35.960;2024-02-26T03:56:47;8.02;;;3.95;;
75044;SDS011;63614;56.026;35.960;2024-02-26T03:59:13;8.88;;;4.05;;
75044;SDS011;63614;56.026;35.960;2024-02-26T04:01:39;7.10;;;3.65;;
75044;SDS011;63614;56.026;35.960;2024-02-26T04:04:04;10.80;;;4.47;;
75044;SDS011;63614;56.026;35.960;2024-02-26T04:06:30;8.15;;;4.13;;
75044;SDS011;63614;56.026;35.960;2024-02-26T04:08:56;8.07;;;4.13;;
75044;SDS011;63614;56.026;35.960;2024-02-26T04:11:22;6.03;;;3.08;;
75044;SDS011;63614;56.026;35.960;2024-02-26T04:13:48;12.13;;;3.88;;
75044;SDS011;63614;56.026;35.960;2024-02-26T04:16:18;8.25;;;4.15;;
75044;SDS011;63614;56.026;35.960;2024-02-26T04:18:43;6.13;;;3.33;;
75044;SDS011;63614;56.026;35.960;2024-02-26T04:21:09;11.15;;;4.18;;
75044;SDS011;63614;56.026;35.960;2024-02-26T04:23:35;8.07;;;3.53;;
75044;SDS011;63614;56.026;35.960;2024-02-26T04:26:01;7.03;;;3.95;;
75044;SDS011;63614;56.026;35.960;2024-02-26T04:28:27;10.40;;;4.07;;
75044;SDS011;63614;56.026;35.960;2024-02-26T04:30:55;6.30;;;3.63;;
75044;SDS011;63614;56.026;35.960;2024-02-26T04:33:21;7.68;;;3.95;;
75044;SDS011;63614;56.026;35.960;2024-02-26T04:35:47;10.27;;;3.75;;
75044;SDS011;63614;56.026;35.960;2024-02-26T04:38:13;9.02;;;3.88;;
75044;SDS011;63614;56.026;35.960;2024-02-26T04:40:39;7.15;;;3.75;;
75044;SDS011;63614;56.026;35.960;2024-02-26T04:43:05;8.32;;;3.33;;
75044;SDS011;63614;56.026;35.960;2024-02-26T04:45:30;5.90;;;3.58;;
75044;SDS011;63614;56.026;35.960;2024-02-26T04:47:56;7.35;;;3.40;;
75044;SDS011;63614;56.026;35.960;2024-02-26T04:50:22;8.00;;;4.05;;
75044;SDS011;63614;56.026;35.960;2024-02-26T04:52:48;6.05;;;3.53;;
75044;SDS011;63614;56.026;35.960;2024-02-26T04:55:14;6.78;;;3.35;;
75044;SDS011;63614;56.026;35.960;2024-02-26T04:57:40;7.38;;;3.70;;
75044;SDS011;63614;56.026;35.960;2024-02-26T05:00:06;8.23;;;3.50;;
75044;SDS011;63614;56.026;35.960;2024-02-26T05:02:33;6.85;;;3.92;;
75044;SDS011;63614;56.026;35.960;2024-02-26T05:05:04;6.35;;;3.65;;
75044;SDS011;63614;56.026;35.960;2024-02-26T05:07:31;7.97;;;3.92;;
75044;SDS011;63614;56.026;35.960;2024-02-26T05:09:57;6.13;;;3.38;;
75044;SDS011;63614;56.026;35.960;2024-02-26T05:12:23;12.18;;;3.75;;
75044;SDS011;63614;56.026;35.960;2024-02-26T05:14:49;7.95;;;4.53;;
75044;SDS011;63614;56.026;35.960;2024-02-26T05:17:14;6.90;;;3.60;;
75044;SDS011;63614;56.026;35.960;2024-02-26T05:19:40;7.22;;;4.07;;
75044;SDS011;63614;56.026;35.960;2024-02-26T05:22:06;9.40;;;3.60;;
75044;SDS011;63614;56.026;35.960;2024-02-26T05:24:32;6.00;;;3.47;;
75044;SDS011;63614;56.026;35.960;2024-02-26T05:26:58;16.38;;;4.50;;
75044;SDS011;63614;56.026;35.960;2024-02-26T05:29:25;10.18;;;4.30;;
75044;SDS011;63614;56.026;35.960;2024-02-26T05:31:51;6.13;;;3.70;;
75044;SDS011;63614;56.026;35.960;2024-02-26T05:34:18;11.32;;;3.85;;
75044;SDS011;63614;56.026;35.960;2024-02-26T05:36:44;7.10;;;3.50;;
75044;SDS011;63614;56.026;35.960;2024-02-26T05:39:10;8.93;;;3.72;;
75044;SDS011;63614;56.026;35.960;2024-02-26T05:41:37;8.20;;;3.83;;
75044;SDS011;63614;56.026;35.960;2024-02-26T05:44:03;7.10;;;3.38;;
75044;SDS011;63614;56.026;35.960;2024-02-26T05:46:29;6.10;;;3.42;;
75044;SDS011;63614;56.026;35.960;2024-02-26T05:48:55;10.52;;;5.20;;
75044;SDS011;63614;56.026;35.960;2024-02-26T05:51:20;8.23;;;4.35;;
75044;SDS011;63614;56.026;35.960;2024-02-26T05:53:46;7.35;;;3.70;;
75044;SDS011;63614;56.026;35.960;2024-02-26T05:56:20;5.78;;;3.65;;
75044;SDS011;63614;56.026;35.960;2024-02-26T06:01:13;8.27;;;4.20;;
75044;SDS011;63614;56.026;35.960;2024-02-26T06:03:40;5.53;;;3.72;;
75044;SDS011;63614;56.026;35.960;2024-02-26T06:06:06;6.68;;;3.85;;
75044;SDS011;63614;56.026;35.960;2024-02-26T06:08:32;6.93;;;3.70;;
75044;SDS011;63614;56.026;35.960;2024-02-26T06:10:57;9.88;;;3.70;;
75044;SDS011;63614;56.026;35.960;2024-02-26T06:13:23;6.85;;;3.08;;
75044;SDS011;63614;56.026;35.960;2024-02-26T06:15:49;6.65;;;3.22;;
75044;SDS011;63614;56.026;35.960;2024-02-26T06:18:15;10.27;;;4.60;;
75044;SDS011;63614;56.026;35.960;2024-02-26T06:20:41;6.63;;;3.22;;
75044;SDS011;63614;56.026;35.960;2024-02-26T06:23:07;7.32;;;4.22;;
75044;SDS011;63614;56.026;35.960;2024-02-26T06:25:33;12.63;;;4.72;;
75044;SDS011;63614;56.026;35.960;2024-02-26T06:27:58;10.57;;;4.60;;
75044;SDS011;63614;56.026;35.960;2024-02-26T06:30:24;7.45;;;3.92;;
75044;SDS011;63614;56.026;35.960;2024-02-26T06:32:50;6.97;;;3.80;;
75044;SDS011;63614;56.026;35.960;2024-02-26T06:35:16;11.02;;;3.88;;
75044;SDS011;63614;56.026;35.960;2024-02-26T06:37:41;12.80;;;4.50;;
75044;SDS011;63614;56.026;35.960;2024-02-26T06:40:07;7.72;;;3.25;;
75044;SDS011;63614;56.026;35.960;2024-02-26T06:42:34;8.65;;;4.13;;
75044;SDS011;63614;56.026;35.960;2024-02-26T06:45:00;9.55;;;4.07;;
75044;SDS011;63614;56.026;35.960;2024-02-26T06:47:26;12.75;;;4.35;;
75044;SDS011;63614;56.026;35.960;2024-02-26T06:49:52;8.48;;;4.30;;
75044;SDS011;63614;56.026;35.960;2024-02-26T06:52:17;6.63;;;3.92;;
75044;SDS011;63614;56.026;35.960;2024-02-26T06:54:43;9.70;;;4.40;;
75044;SDS011;63614;56.026;35.960;2024-02-26T06:57:10;7.97;;;3.65;;
75044;SDS011;63614;56.026;35.960;2024-02-26T06:59:36;8.80;;;4.25;;
75044;SDS011;63614;56.026;35.960;2024-02-26T07:02:02;9.13;;;3.70;;
75044;SDS011;63614;56.026;35.960;2024-02-26T07:04:28;8.10;;;4.15;;
75044;SDS011;63614;56.026;35.960;2024-02-26T07:06:54;9.63;;;4.45;;
75044;SDS011;63614;56.026;35.960;2024-02-26T07:09:19;8.00;;;4.10;;
75044;SDS011;63614;56.026;35.960;2024-02-26T07:11:45;7.80;;;4.13;;
75044;SDS011;63614;56.026;35.960;2024-02-26T07:14:11;7.97;;;3.75;;
75044;SDS011;63614;56.026;35.960;2024-02-26T07:16:38;9.55;;;4.20;;
75044;SDS011;63614;56.026;35.960;2024-02-26T07:19:04;20.38;;;5.25;;
75044;SDS011;63614;56.026;35.960;2024-02-26T07:21:30;8.68;;;4.45;;
75044;SDS011;63614;56.026;35.960;2024-02-26T07:23:56;8.32;;;4.05;;
75044;SDS011;63614;56.026;35.960;2024-02-26T07:26:21;12.90;;;4.07;;
75044;SDS011;63614;56.026;35.960;2024-02-26T07:28:50;12.30;;;4.15;;
75044;SDS011;63614;56.026;35.960;2024-02-26T07:31:17;8.77;;;4.30;;
75044;SDS011;63614;56.026;35.960;2024-02-26T07:33:43;9.20;;;4.70;;
75044;SDS011;63614;56.026;35.960;2024-02-26T07:36:09;12.80;;;4.55;;
75044;SDS011;63614;56.026;35.960;2024-02-26T07:38:34;8.98;;;4.55;;
75044;SDS011;63614;56.026;35.960;2024-02-26T07:41:01;9.20;;;3.75;;
75044;SDS011;63614;56.026;35.960;2024-02-26T07:43:28;9.27;;;4.80;;
75044;SDS011;63614;56.026;35.960;2024-02-26T07:45:54;9.20;;;4.65;;
75044;SDS011;63614;56.026;35.960;2024-02-26T07:48:20;10.65;;;5.07;;
75044;SDS011;63614;56.026;35.960;2024-02-26T07:50:46;9.40;;;3.85;;
75044;SDS011;63614;56.026;35.960;2024-02-26T07:53:12;9.02;;;3.95;;
75044;SDS011;63614;56.026;35.960;2024-02-26T07:55:38;10.40;;;4.47;;
75044;SDS011;63614;56.026;35.960;2024-02-26T07:58:04;9.55;;;4.80;;
75044;SDS011;63614;56.026;35.960;2024-02-26T08:00:30;8.27;;;4.50;;
75044;SDS011;63614;56.026;35.960;2024-02-26T08:02:56;7.38;;;4.03;;
75044;SDS011;63614;56.026;35.960;2024-02-26T08:05:22;9.00;;;4.85;;
75044;SDS011;63614;56.026;35.960;2024-02-26T08:07:48;10.52;;;4.45;;
75044;SDS011;63614;56.026;35.960;2024-02-26T08:10:14;13.70;;;4.75;;
75044;SDS011;63614;56.026;35.960;2024-02-26T08:12:40;10.63;;;5.28;;
75044;SDS011;63614;56.026;35.960;2024-02-26T08:15:06;10.20;;;5.00;;
75044;SDS011;63614;56.026;35.960;2024-02-26T08:17:33;10.27;;;5.30;;
75044;SDS011;63614;56.026;35.960;2024-02-26T08:19:59;10.13;;;5.22;;
75044;SDS011;63614;56.026;35.960;2024-02-26T08:22:25;7.45;;;4.45;;
75044;SDS011;63614;56.026;35.960;2024-02-26T08:24:51;8.30;;;4.82;;
75044;SDS011;63614;56.026;35.960;2024-02-26T08:27:17;16.23;;;5.45;;
75044;SDS011;63614;56.026;35.960;2024-02-26T08:29:43;14.98;;;6.43;;
75044;SDS011;63614;56.026;35.960;2024-02-26T08:32:08;12.45;;;5.40;;
75044;SDS011;63614;56.026;35.960;2024-02-26T08:34:34;12.38;;;5.32;;
75044;SDS011;63614;56.026;35.960;2024-02-26T08:37:00;10.05;;;5.57;;
75044;SDS011;63614;56.026;35.960;2024-02-26T08:39:26;13.85;;;5.57;;
75044;SDS011;63614;56.026;35.960;2024-02-26T08:41:52;9.35;;;5.30;;
75044;SDS011;63614;56.026;35.960;2024-02-26T08:44:18;12.95;;;5.43;;
75044;SDS011;63614;56.026;35.960;2024-02-26T08:46:44;10.77;;;5.38;;
75044;SDS011;63614;56.026;35.960;2024-02-26T08:49:11;13.93;;;5.88;;
75044;SDS011;63614;56.026;35.960;2024-02-26T08:51:43;12.45;;;5.60;;
75044;SDS011;63614;56.026;35.960;2024-02-26T08:54:10;21.17;;;6.10;;
75044;SDS011;63614;56.026;35.960;2024-02-26T08:56:36;11.90;;;5.22;;
75044;SDS011;63614;56.026;35.960;2024-02-26T08:59:03;8.07;;;4.38;;
75044;SDS011;63614;56.026;35.960;2024-02-26T09:01:31;9.18;;;5.63;;
75044;SDS011;63614;56.026;35.960;2024-02-26T09:03:58;14.15;;;5.95;;
75044;SDS011;63614;56.026;35.960;2024-02-26T09:06:24;18.30;;;5.70;;
75044;SDS011;63614;56.026;35.960;2024-02-26T09:08:50;10.90;;;5.72;;
75044;SDS011;63614;56.026;35.960;2024-02-26T09:11:16;13.93;;;5.63;;
75044;SDS011;63614;56.026;35.960;2024-02-26T09:13:41;13.90;;;5.63;;
75044;SDS011;63614;56.026;35.960;2024-02-26T09:16:07;11.52;;;5.90;;
75044;SDS011;63614;56.026;35.960;2024-02-26T09:18:33;12.45;;;5.90;;
75044;SDS011;63614;56.026;35.960;2024-02-26T09:20:59;8.63;;;5.22;;
75044;SDS011;63614;56.026;35.960;2024-02-26T09:23:25;14.63;;;6.10;;
75044;SDS011;63614;56.026;35.960;2024-02-26T09:25:51;15.18;;;5.40;;
75044;SDS011;63614;56.026;35.960;2024-02-26T09:28:16;12.23;;;5.57;;
75044;SDS011;63614;56.026;35.960;2024-02-26T09:30:45;15.05;;;6.65;;
75044;SDS011;63614;56.026;35.960;2024-02-26T09:33:13;11.38;;;6.00;;
75044;SDS011;63614;56.026;35.960;2024-02-26T09:35:39;11.05;;;6.03;;
75044;SDS011;63614;56.026;35.960;2024-02-26T09:38:05;12.50;;;6.50;;
75044;SDS011;63614;56.026;35.960;2024-02-26T09:40:31;9.35;;;4.88;;
75044;SDS011;63614;56.026;35.960;2024-02-26T09:42:59;11.70;;;5.60;;
75044;SDS011;63614;56.026;35.960;2024-02-26T09:45:27;7.97;;;5.28;;
75044;SDS011;63614;56.026;35.960;2024-02-26T09:47:55;10.85;;;5.90;;
75044;SDS011;63614;56.026;35.960;2024-02-26T09:50:21;14.27;;;6.15;;
75044;SDS011;63614;56.026;35.960;2024-02-26T09:52:50;12.07;;;5.40;;
75044;SDS011;63614;56.026;35.960;2024-02-26T09:55:18;13.32;;;5.50;;
75044;SDS011;63614;56.026;35.960;2024-02-26T09:57:45;15.48;;;6.20;;
75044;SDS011;63614;56.026;35.960;2024-02-26T10:00:14;10.13;;;5.65;;
75044;SDS011;63614;56.026;35.960;2024-02-26T10:02:45;13.15;;;6.10;;
75044;SDS011;63614;56.026;35.960;2024-02-26T10:05:17;12.73;;;5.22;;
75044;SDS011;63614;56.026;35.960;2024-02-26T10:07:46;16.90;;;5.80;;
75044;SDS011;63614;56.026;35.960;2024-02-26T10:10:15;10.95;;;5.18;;
75044;SDS011;63614;56.026;35.960;2024-02-26T10:12:43;12.63;;;6.00;;
75044;SDS011;63614;56.026;35.960;2024-02-26T10:15:09;14.90;;;5.00;;
75044;SDS011;63614;56.026;35.960;2024-02-26T10:17:35;13.02;;;6.10;;
75044;SDS011;63614;56.026;35.960;2024-02-26T10:20:20;13.53;;;5.93;;
75044;SDS011;63614;56.026;35.960;2024-02-26T10:22:50;11.90;;;5.30;;
75044;SDS011;63614;56.026;35.960;2024-02-26T10:25:17;17.27;;;5.72;;
75044;SDS011;63614;56.026;35.960;2024-02-26T10:27:43;17.17;;;6.25;;
75044;SDS011;63614;56.026;35.960;2024-02-26T10:30:17;14.45;;;6.15;;
75044;SDS011;63614;56.026;35.960;2024-02-26T10:32:50;22.58;;;6.13;;
75044;SDS011;63614;56.026;35.960;2024-02-26T10:35:17;11.63;;;5.97;;
75044;SDS011;63614;56.026;35.960;2024-02-26T10:37:43;10.75;;;5.45;;
75044;SDS011;63614;56.026;35.960;2024-02-26T10:40:18;13.02;;;5.32;;
75044;SDS011;63614;56.026;35.960;2024-02-26T10:42:44;14.35;;;5.95;;
75044;SDS011;63614;56.026;35.960;2024-02-26T10:45:13;19.17;;;5.78;;
75044;SDS011;63614;56.026;35.960;2024-02-26T10:47:39;18.77;;;6.55;;
75044;SDS011;63614;56.026;35.960;2024-02-26T10:50:07;13.65;;;5.88;;
75044;SDS011;63614;56.026;35.960;2024-02-26T10:52:34;11.98;;;5.65;;
75044;SDS011;63614;56.026;35.960;2024-02-26T10:55:02;11.65;;;5.57;;
75044;SDS011;63614;56.026;35.960;2024-02-26T10:57:34;14.10;;;5.93;;
75044;SDS011;63614;56.026;35.960;2024-02-26T11:00:07;20.98;;;5.82;;
75044;SDS011;63614;56.026;35.960;2024-02-26T11:02:55;13.85;;;5.85;;
75044;SDS011;63614;56.026;35.960;2024-02-26T11:05:25;9.23;;;5.00;;
75044;SDS011;63614;56.026;35.960;2024-02-26T11:07:52;15.65;;;6.05;;
75044;SDS011;63614;56.026;35.960;2024-02-26T11:10:18;15.35;;;5.28;;
75044;SDS011;63614;56.026;35.960;2024-02-26T11:12:44;21.50;;;6.38;;
75044;SDS011;63614;56.026;35.960;2024-02-26T11:15:11;9.30;;;4.60;;
75044;SDS011;63614;56.026;35.960;2024-02-26T11:17:37;13.82;;;5.47;;
75044;SDS011;63614;56.026;35.960;2024-02-26T11:20:04;10.18;;;5.10;;
75044;SDS011;63614;56.026;35.960;2024-02-26T11:22:34;14.85;;;5.25;;
75044;SDS011;63614;56.026;35.960;2024-02-26T11:25:01;14.73;;;6.15;;
75044;SDS011;63614;56.026;35.960;2024-02-26T11:27:30;10.00;;;5.22;;
75044;SDS011;63614;56.026;35.960;2024-02-26T11:30:08;12.35;;;5.93;;
75044;SDS011;63614;56.026;35.960;2024-02-26T11:32:36;14.77;;;5.53;;
75044;SDS011;63614;56.026;35.960;2024-02-26T11:35:04;9.70;;;5.50;;
75044;SDS011;63614;56.026;35.960;2024-02-26T11:37:31;15.70;;;6.13;;
75044;SDS011;63614;56.026;35.960;2024-02-26T11:39:58;11.63;;;5.63;;
75044;SDS011;63614;56.026;35.960;2024-02-26T11:42:25;17.02;;;5.60;;
75044;SDS011;63614;56.026;35.960;2024-02-26T11:44:51;13.05;;;5.38;;
75044;SDS011;63614;56.026;35.960;2024-02-26T11:47:21;11.85;;;4.82;;
75044;SDS011;63614;56.026;35.960;2024-02-26T11:49:48;12.02;;;5.10;;
75044;SDS011;63614;56.026;35.960;2024-02-26T11:52:15;13.05;;;5.45;;
75044;SDS011;63614;56.026;35.960;2024-02-26T11:54:51;9.52;;;5.53;;
75044;SDS011;63614;56.026;35.960;2024-02-26T11:57:29;14.53;;;5.33;;
75044;SDS011;63614;56.026;35.960;2024-02-26T12:02:52;11.40;;;5.03;;
75044;SDS011;63614;56.026;35.960;2024-02-26T12:05:31;11.65;;;5.75;;
75044;SDS011;63614;56.026;35.960;2024-02-26T12:08:02;8.70;;;4.95;;
75044;SDS011;63614;56.026;35.960;2024-02-26T12:10:32;18.33;;;4.90;;
75044;SDS011;63614;56.026;35.960;2024-02-26T12:18:19;8.65;;;4.55;;
75044;SDS011;63614;56.026;35.960;2024-02-26T12:20:57;15.30;;;5.13;;
75044;SDS011;63614;56.026;35.960;2024-02-26T12:23:25;13.20;;;4.60;;
75044;SDS011;63614;56.026;35.960;2024-02-26T12:25:50;18.33;;;5.65;;
75044;SDS011;63614;56.026;35.960;2024-02-26T12:28:17;12.07;;;5.05;;
75044;SDS011;63614;56.026;35.960;2024-02-26T12:30:43;13.20;;;5.10;;
75044;SDS011;63614;56.026;35.960;2024-02-26T12:33:09;11.05;;;5.00;;
75044;SDS011;63614;56.026;35.960;2024-02-26T12:35:36;14.98;;;5.05;;
75044;SDS011;63614;56.026;35.960;2024-02-26T12:38:02;14.52;;;5.20;;
75044;SDS011;63614;56.026;35.960;2024-02-26T12:40:30;16.83;;;5.25;;
75044;SDS011;63614;56.026;35.960;2024-02-26T12:42:56;12.55;;;5.28;;
75044;SDS011;63614;56.026;35.960;2024-02-26T12:45:41;18.08;;;5.28;;
75044;SDS011;63614;56.026;35.960;2024-02-26T12:48:12;11.52;;;4.55;;
75044;SDS011;63614;56.026;35.960;2024-02-26T12:50:38;14.60;;;4.70;;
75044;SDS011;63614;56.026;35.960;2024-02-26T12:53:03;12.10;;;5.28;;
75044;SDS011;63614;56.026;35.960;2024-02-26T12:55:31;9.82;;;4.63;;
75044;SDS011;63614;56.026;35.960;2024-02-26T12:58:00;11.02;;;5.22;;
75044;SDS011;63614;56.026;35.960;2024-02-26T13:00:27;12.00;;;4.72;;
75044;SDS011;63614;56.026;35.960;2024-02-26T13:02:57;10.93;;;4.60;;
75044;SDS011;63614;56.026;35.960;2024-02-26T13:05:25;12.32;;;4.97;;
75044;SDS011;63614;56.026;35.960;2024-02-26T13:07:52;17.70;;;5.15;;
75044;SDS011;63614;56.026;35.960;2024-02-26T13:10:19;12.75;;;4.53;;
75044;SDS011;63614;56.026;35.960;2024-02-26T13:12:46;10.23;;;4.55;;
75044;SDS011;63614;56.026;35.960;2024-02-26T13:15:17;14.02;;;4.20;;
75044;SDS011;63614;56.026;35.960;2024-02-26T13:17:44;11.82;;;4.55;;
75044;SDS011;63614;56.026;35.960;2024-02-26T13:20:11;13.98;;;5.05;;
75044;SDS011;63614;56.026;35.960;2024-02-26T13:22:37;16.52;;;5.00;;
75044;SDS011;63614;56.026;35.960;2024-02-26T13:25:04;11.50;;;4.78;;
75044;SDS011;63614;56.026;35.960;2024-02-26T13:27:33;10.57;;;4.38;;
75044;SDS011;63614;56.026;35.960;2024-02-26T13:30:09;17.83;;;4.85;;
75044;SDS011;63614;56.026;35.960;2024-02-26T13:32:36;6.53;;;3.72;;
75044;SDS011;63614;56.026;35.960;2024-02-26T13:35:10;13.65;;;4.82;;
75044;SDS011;63614;56.026;35.960;2024-02-26T13:37:38;8.02;;;3.92;;
75044;SDS011;63614;56.026;35.960;2024-02-26T13:40:05;11.00;;;4.63;;
75044;SDS011;63614;56.026;35.960;2024-02-26T13:42:32;18.20;;;4.32;;
75044;SDS011;63614;56.026;35.960;2024-02-26T13:44:58;10.45;;;4.68;;
75044;SDS011;63614;56.026;35.960;2024-02-26T13:47:24;18.05;;;4.88;;
75044;SDS011;63614;56.026;35.960;2024-02-26T13:49:50;8.10;;;4.80;;
75044;SDS011;63614;56.026;35.960;2024-02-26T13:52:16;13.73;;;4.50;;
75044;SDS011;63614;56.026;35.960;2024-02-26T13:54:42;13.02;;;4.68;;
75044;SDS011;63614;56.026;35.960;2024-02-26T13:57:08;9.95;;;4.47;;
75044;SDS011;63614;56.026;35.960;2024-02-26T13:59:34;9.90;;;4.65;;
75044;SDS011;63614;56.026;35.960;2024-02-26T14:02:00;13.57;;;4.13;;
75044;SDS011;63614;56.026;35.960;2024-02-26T14:04:26;16.40;;;4.85;;
75044;SDS011;63614;56.026;35.960;2024-02-26T14:06:52;11.27;;;5.10;;
75044;SDS011;63614;56.026;35.960;2024-02-26T14:09:18;15.50;;;4.65;;
75044;SDS011;63614;56.026;35.960;2024-02-26T14:11:47;14.65;;;4.82;;
75044;SDS011;63614;56.026;35.960;2024-02-26T14:14:13;14.43;;;4.75;;
75044;SDS011;63614;56.026;35.960;2024-02-26T14:16:40;13.32;;;4.93;;
75044;SDS011;63614;56.026;35.960;2024-02-26T14:19:06;13.43;;;4.72;;
75044;SDS011;63614;56.026;35.960;2024-02-26T14:21:50;14.75;;;4.72;;
75044;SDS011;63614;56.026;35.960;2024-02-26T14:24:16;9.38;;;4.95;;
75044;SDS011;63614;56.026;35.960;2024-02-26T14:26:42;11.38;;;5.25;;
75044;SDS011;63614;56.026;35.960;2024-02-26T14:29:08;12.98;;;5.05;;
75044;SDS011;63614;56.026;35.960;2024-02-26T14:31:34;14.98;;;4.93;;
75044;SDS011;63614;56.026;35.960;2024-02-26T14:33:59;15.45;;;4.82;;
75044;SDS011;63614;56.026;35.960;2024-02-26T14:36:26;11.93;;;4.73;;
75044;SDS011;63614;56.026;35.960;2024-02-26T14:38:54;12.45;;;4.30;;